sensor_id;sensor_type;location;lat;lon;timestamp;pressure;altitude;pressure_sealevel;temperature;humidity
47592;BME280;33317;33.356;-117.184;2022-08-26T00:01:54;99039.09;;;29.05;23.08
47592;BME280;33317;33.356;-117.184;2022-08-26T00:04:23;99035.36;;;28.45;23.54
47592;BME280;33317;33.356;-117.184;2022-08-26T00:06:52;99040.04;;;28.24;23.60
47592;BME280;33317;33.356;-117.184;2022-08-26T00:09:23;99038.93;;;28.33;23.54
47592;BME280;33317;33.356;-117.184;2022-08-26T00:11:52;99042.45;;;28.66;23.02
47592;BME280;33317;33.356;-117.184;2022-08-26T00:14:22;99041.03;;;29.14;22.72
47592;BME280;33317;33.356;-117.184;2022-08-26T00:16:51;99046.55;;;28.67;23.49
47592;BME280;33317;33.356;-117.184;2022-08-26T00:19:21;99046.71;;;28.81;23.46
47592;BME280;33317;33.356;-117.184;2022-08-26T00:21:50;99045.65;;;28.53;23.54
47592;BME280;33317;33.356;-117.184;2022-08-26T00:24:21;99046.68;;;28.31;23.54
47592;BME280;33317;33.356;-117.184;2022-08-26T00:26:49;99048.04;;;28.62;23.64
47592;BME280;33317;33.356;-117.184;2022-08-26T00:29:19;99046.42;;;28.59;22.91
47592;BME280;33317;33.356;-117.184;2022-08-26T00:31:48;99046.06;;;29.17;22.56
47592;BME280;33317;33.356;-117.184;2022-08-26T00:34:16;99046.19;;;29.21;22.85
47592;BME280;33317;33.356;-117.184;2022-08-26T00:36:44;99051.41;;;29.09;22.99
47592;BME280;33317;33.356;-117.184;2022-08-26T00:39:13;99054.06;;;28.93;22.89
47592;BME280;33317;33.356;-117.184;2022-08-26T00:41:41;99053.93;;;28.54;23.19
47592;BME280;33317;33.356;-117.184;2022-08-26T00:44:10;99055.16;;;28.68;23.26
47592;BME280;33317;33.356;-117.184;2022-08-26T00:46:42;99057.38;;;29.06;22.89
47592;BME280;33317;33.356;-117.184;2022-08-26T00:49:16;99057.85;;;28.70;22.99
47592;BME280;33317;33.356;-117.184;2022-08-26T00:51:50;99059.68;;;28.84;23.00
47592;BME280;33317;33.356;-117.184;2022-08-26T00:54:21;99059.80;;;28.69;22.88
47592;BME280;33317;33.356;-117.184;2022-08-26T00:56:54;99056.94;;;28.23;23.16
47592;BME280;33317;33.356;-117.184;2022-08-26T00:59:23;99064.04;;;28.34;23.08
47592;BME280;33317;33.356;-117.184;2022-08-26T01:01:57;99069.04;;;28.58;23.01
47592;BME280;33317;33.356;-117.184;2022-08-26T01:04:25;99068.58;;;29.28;22.96
47592;BME280;33317;33.356;-117.184;2022-08-26T01:06:54;99066.09;;;29.55;22.66
47592;BME280;33317;33.356;-117.184;2022-08-26T01:09:23;99066.12;;;29.35;22.69
47592;BME280;33317;33.356;-117.184;2022-08-26T01:11:54;99066.26;;;29.18;22.65
47592;BME280;33317;33.356;-117.184;2022-08-26T01:14:26;99064.68;;;28.96;22.92
47592;BME280;33317;33.356;-117.184;2022-08-26T01:16:56;99064.39;;;28.63;22.94
47592;BME280;33317;33.356;-117.184;2022-08-26T01:19:27;99065.24;;;28.49;23.27
47592;BME280;33317;33.356;-117.184;2022-08-26T01:22:00;99066.40;;;28.70;23.14
47592;BME280;33317;33.356;-117.184;2022-08-26T01:24:30;99070.21;;;28.79;22.95
47592;BME280;33317;33.356;-117.184;2022-08-26T01:27:01;99071.59;;;29.03;22.98
47592;BME280;33317;33.356;-117.184;2022-08-26T01:29:32;99069.51;;;29.40;22.88
47592;BME280;33317;33.356;-117.184;2022-08-26T01:32:02;99073.80;;;29.22;22.77
47592;BME280;33317;33.356;-117.184;2022-08-26T01:34:34;99080.37;;;29.25;22.69
47592;BME280;33317;33.356;-117.184;2022-08-26T01:37:07;99084.98;;;28.79;22.64
47592;BME280;33317;33.356;-117.184;2022-08-26T01:39:45;99088.10;;;29.00;22.59
47592;BME280;33317;33.356;-117.184;2022-08-26T01:42:17;99087.31;;;28.99;22.72
47592;BME280;33317;33.356;-117.184;2022-08-26T01:44:55;99087.78;;;29.04;23.14
47592;BME280;33317;33.356;-117.184;2022-08-26T01:47:26;99087.77;;;28.48;22.98
47592;BME280;33317;33.356;-117.184;2022-08-26T01:50:00;99085.55;;;28.82;23.23
47592;BME280;33317;33.356;-117.184;2022-08-26T01:52:31;99086.18;;;29.52;22.74
47592;BME280;33317;33.356;-117.184;2022-08-26T01:55:02;99082.16;;;29.05;22.66
47592;BME280;33317;33.356;-117.184;2022-08-26T01:57:32;99080.23;;;29.12;22.73
47592;BME280;33317;33.356;-117.184;2022-08-26T02:00:05;99079.56;;;28.81;22.57
47592;BME280;33317;33.356;-117.184;2022-08-26T02:02:34;99073.78;;;29.01;22.71
47592;BME280;33317;33.356;-117.184;2022-08-26T02:05:06;99074.20;;;29.29;22.90
47592;BME280;33317;33.356;-117.184;2022-08-26T02:07:39;99075.74;;;29.57;22.78
47592;BME280;33317;33.356;-117.184;2022-08-26T02:10:09;99082.35;;;29.81;22.66
47592;BME280;33317;33.356;-117.184;2022-08-26T02:12:40;99083.74;;;29.42;22.67
47592;BME280;33317;33.356;-117.184;2022-08-26T02:15:10;99089.51;;;29.27;22.54
47592;BME280;33317;33.356;-117.184;2022-08-26T02:17:42;99089.41;;;29.23;22.79
47592;BME280;33317;33.356;-117.184;2022-08-26T02:20:15;99089.40;;;29.54;22.85
47592;BME280;33317;33.356;-117.184;2022-08-26T02:22:45;99092.06;;;29.59;22.83
47592;BME280;33317;33.356;-117.184;2022-08-26T02:25:24;99093.83;;;29.91;22.87
47592;BME280;33317;33.356;-117.184;2022-08-26T02:27:54;99095.07;;;29.31;23.36
47592;BME280;33317;33.356;-117.184;2022-08-26T02:30:31;99097.09;;;28.98;23.91
47592;BME280;33317;33.356;-117.184;2022-08-26T02:33:01;99099.68;;;28.61;23.46
47592;BME280;33317;33.356;-117.184;2022-08-26T02:35:32;99101.59;;;28.63;23.38
47592;BME280;33317;33.356;-117.184;2022-08-26T02:38:05;99103.04;;;28.49;23.72
47592;BME280;33317;33.356;-117.184;2022-08-26T02:40:37;99107.43;;;28.68;23.95
47592;BME280;33317;33.356;-117.184;2022-08-26T02:43:06;99107.61;;;28.87;24.03
47592;BME280;33317;33.356;-117.184;2022-08-26T02:45:37;99111.93;;;28.84;23.82
47592;BME280;33317;33.356;-117.184;2022-08-26T02:48:09;99116.05;;;28.82;23.66
47592;BME280;33317;33.356;-117.184;2022-08-26T02:50:40;99117.56;;;28.84;23.75
47592;BME280;33317;33.356;-117.184;2022-08-26T02:53:10;99116.97;;;28.92;23.77
47592;BME280;33317;33.356;-117.184;2022-08-26T02:55:40;99119.30;;;28.70;23.90
47592;BME280;33317;33.356;-117.184;2022-08-26T02:58:19;99122.29;;;28.60;24.45
47592;BME280;33317;33.356;-117.184;2022-08-26T03:00:48;99129.01;;;28.71;24.01
47592;BME280;33317;33.356;-117.184;2022-08-26T03:03:18;99130.90;;;28.65;23.71
47592;BME280;33317;33.356;-117.184;2022-08-26T03:05:47;99134.99;;;29.03;23.70
47592;BME280;33317;33.356;-117.184;2022-08-26T03:08:16;99140.21;;;29.27;23.39
47592;BME280;33317;33.356;-117.184;2022-08-26T03:10:44;99146.03;;;29.15;23.25
47592;BME280;33317;33.356;-117.184;2022-08-26T03:13:23;99150.64;;;29.08;23.56
47592;BME280;33317;33.356;-117.184;2022-08-26T03:15:52;99152.73;;;28.64;23.66
47592;BME280;33317;33.356;-117.184;2022-08-26T03:18:22;99155.83;;;28.63;23.69
47592;BME280;33317;33.356;-117.184;2022-08-26T03:20:51;99160.50;;;28.80;23.81
47592;BME280;33317;33.356;-117.184;2022-08-26T03:23:26;99161.00;;;29.14;23.77
47592;BME280;33317;33.356;-117.184;2022-08-26T03:25:55;99161.46;;;28.71;23.71
47592;BME280;33317;33.356;-117.184;2022-08-26T03:28:30;99163.14;;;29.29;23.46
47592;BME280;33317;33.356;-117.184;2022-08-26T03:31:05;99169.87;;;29.03;23.50
47592;BME280;33317;33.356;-117.184;2022-08-26T03:33:34;99176.60;;;28.95;23.85
47592;BME280;33317;33.356;-117.184;2022-08-26T03:36:05;99177.04;;;28.97;23.81
47592;BME280;33317;33.356;-117.184;2022-08-26T03:38:40;99180.08;;;29.35;23.73
47592;BME280;33317;33.356;-117.184;2022-08-26T03:41:11;99180.76;;;29.12;23.83
47592;BME280;33317;33.356;-117.184;2022-08-26T03:43:48;99178.09;;;28.65;23.94
47592;BME280;33317;33.356;-117.184;2022-08-26T03:46:19;99181.06;;;28.35;24.10
47592;BME280;33317;33.356;-117.184;2022-08-26T03:48:51;99185.32;;;28.01;24.36
47592;BME280;33317;33.356;-117.184;2022-08-26T03:51:21;99186.18;;;28.47;24.49
47592;BME280;33317;33.356;-117.184;2022-08-26T03:53:57;99188.14;;;28.55;24.00
47592;BME280;33317;33.356;-117.184;2022-08-26T03:56:30;99192.75;;;28.98;23.51
47592;BME280;33317;33.356;-117.184;2022-08-26T03:59:06;99196.72;;;28.62;23.96
47592;BME280;33317;33.356;-117.184;2022-08-26T04:01:37;99204.28;;;28.50;23.71
47592;BME280;33317;33.356;-117.184;2022-08-26T04:04:08;99204.53;;;28.45;23.81
47592;BME280;33317;33.356;-117.184;2022-08-26T04:06:43;99204.81;;;28.44;24.05
47592;BME280;33317;33.356;-117.184;2022-08-26T04:09:14;99203.89;;;28.47;23.73
47592;BME280;33317;33.356;-117.184;2022-08-26T04:11:46;99207.82;;;29.10;23.60
47592;BME280;33317;33.356;-117.184;2022-08-26T04:14:22;99212.71;;;28.90;23.65
47592;BME280;33317;33.356;-117.184;2022-08-26T04:16:52;99215.15;;;28.68;23.50
47592;BME280;33317;33.356;-117.184;2022-08-26T04:19:29;99213.07;;;28.51;23.44
47592;BME280;33317;33.356;-117.184;2022-08-26T04:21:59;99209.97;;;28.25;23.66
47592;BME280;33317;33.356;-117.184;2022-08-26T04:24:28;99215.57;;;28.28;23.65
47592;BME280;33317;33.356;-117.184;2022-08-26T04:27:01;99218.63;;;28.89;23.45
47592;BME280;33317;33.356;-117.184;2022-08-26T04:29:30;99221.67;;;28.75;23.32
47592;BME280;33317;33.356;-117.184;2022-08-26T04:32:06;99220.50;;;28.99;23.43
47592;BME280;33317;33.356;-117.184;2022-08-26T04:34:40;99221.20;;;28.69;23.28
47592;BME280;33317;33.356;-117.184;2022-08-26T04:37:10;99220.29;;;28.41;23.46
47592;BME280;33317;33.356;-117.184;2022-08-26T04:39:42;99217.73;;;28.63;23.58
47592;BME280;33317;33.356;-117.184;2022-08-26T04:42:16;99219.80;;;28.26;23.62
47592;BME280;33317;33.356;-117.184;2022-08-26T04:44:47;99226.90;;;27.75;23.76
47592;BME280;33317;33.356;-117.184;2022-08-26T04:47:21;99224.97;;;27.88;23.54
47592;BME280;33317;33.356;-117.184;2022-08-26T04:49:59;99221.40;;;28.07;23.79
47592;BME280;33317;33.356;-117.184;2022-08-26T04:52:28;99221.88;;;28.29;23.35
47592;BME280;33317;33.356;-117.184;2022-08-26T04:54:58;99223.57;;;28.45;23.16
47592;BME280;33317;33.356;-117.184;2022-08-26T04:57:27;99219.73;;;28.76;23.10
47592;BME280;33317;33.356;-117.184;2022-08-26T05:00:03;99221.15;;;28.75;23.00
47592;BME280;33317;33.356;-117.184;2022-08-26T05:02:36;99223.34;;;28.77;23.32
47592;BME280;33317;33.356;-117.184;2022-08-26T05:05:06;99225.45;;;28.60;23.13
47592;BME280;33317;33.356;-117.184;2022-08-26T05:07:35;99230.93;;;28.83;23.18
47592;BME280;33317;33.356;-117.184;2022-08-26T05:10:09;99228.54;;;29.01;23.07
47592;BME280;33317;33.356;-117.184;2022-08-26T05:12:45;99226.19;;;29.17;23.13
47592;BME280;33317;33.356;-117.184;2022-08-26T05:15:13;99223.62;;;29.29;23.24
47592;BME280;33317;33.356;-117.184;2022-08-26T05:17:42;99221.62;;;29.39;23.39
47592;BME280;33317;33.356;-117.184;2022-08-26T05:20:11;99222.96;;;29.50;23.36
47592;BME280;33317;33.356;-117.184;2022-08-26T05:22:44;99224.24;;;29.29;23.36
47592;BME280;33317;33.356;-117.184;2022-08-26T05:25:13;99226.78;;;29.63;23.44
47592;BME280;33317;33.356;-117.184;2022-08-26T05:27:42;99231.51;;;29.68;23.50
47592;BME280;33317;33.356;-117.184;2022-08-26T05:30:13;99233.49;;;29.72;23.36
47592;BME280;33317;33.356;-117.184;2022-08-26T05:32:42;99234.72;;;29.48;23.52
47592;BME280;33317;33.356;-117.184;2022-08-26T05:35:11;99236.24;;;29.78;23.44
47592;BME280;33317;33.356;-117.184;2022-08-26T05:37:39;99235.59;;;29.52;23.47
47592;BME280;33317;33.356;-117.184;2022-08-26T05:40:09;99234.48;;;29.79;23.59
47592;BME280;33317;33.356;-117.184;2022-08-26T05:42:38;99240.06;;;29.79;23.55
47592;BME280;33317;33.356;-117.184;2022-08-26T05:45:08;99239.36;;;29.77;23.71
47592;BME280;33317;33.356;-117.184;2022-08-26T05:47:37;99236.19;;;29.80;23.66
47592;BME280;33317;33.356;-117.184;2022-08-26T05:50:06;99235.33;;;29.80;23.75
47592;BME280;33317;33.356;-117.184;2022-08-26T05:52:35;99238.73;;;29.53;23.84
47592;BME280;33317;33.356;-117.184;2022-08-26T05:55:05;99242.16;;;29.79;23.80
47592;BME280;33317;33.356;-117.184;2022-08-26T05:57:34;99244.65;;;29.79;23.80
47592;BME280;33317;33.356;-117.184;2022-08-26T06:00:04;99245.10;;;29.79;23.87
47592;BME280;33317;33.356;-117.184;2022-08-26T06:02:33;99246.15;;;29.78;23.95
47592;BME280;33317;33.356;-117.184;2022-08-26T06:05:01;99244.32;;;29.79;23.96
47592;BME280;33317;33.356;-117.184;2022-08-26T06:07:30;99242.29;;;29.80;24.00
47592;BME280;33317;33.356;-117.184;2022-08-26T06:09:59;99241.13;;;29.82;24.13
47592;BME280;33317;33.356;-117.184;2022-08-26T06:12:28;99238.02;;;29.55;24.14
47592;BME280;33317;33.356;-117.184;2022-08-26T06:14:58;99234.87;;;29.53;24.17
47592;BME280;33317;33.356;-117.184;2022-08-26T06:17:27;99230.67;;;29.53;24.28
47592;BME280;33317;33.356;-117.184;2022-08-26T06:20:00;99232.99;;;29.51;24.18
47592;BME280;33317;33.356;-117.184;2022-08-26T06:22:29;99232.81;;;29.73;24.30
47592;BME280;33317;33.356;-117.184;2022-08-26T06:24:57;99227.40;;;29.47;24.33
47592;BME280;33317;33.356;-117.184;2022-08-26T06:27:26;99229.06;;;29.73;24.38
47592;BME280;33317;33.356;-117.184;2022-08-26T06:29:54;99226.27;;;29.71;24.35
47592;BME280;33317;33.356;-117.184;2022-08-26T06:32:22;99225.97;;;29.70;24.42
47592;BME280;33317;33.356;-117.184;2022-08-26T06:34:52;99225.25;;;29.71;24.45
47592;BME280;33317;33.356;-117.184;2022-08-26T06:37:20;99226.67;;;29.43;24.44
47592;BME280;33317;33.356;-117.184;2022-08-26T06:39:49;99226.10;;;29.42;24.41
47592;BME280;33317;33.356;-117.184;2022-08-26T06:42:17;99228.48;;;29.43;24.45
47592;BME280;33317;33.356;-117.184;2022-08-26T06:44:45;99228.50;;;29.43;24.49
47592;BME280;33317;33.356;-117.184;2022-08-26T06:47:14;99228.60;;;29.41;24.54
47592;BME280;33317;33.356;-117.184;2022-08-26T06:49:42;99228.21;;;29.40;24.56
47592;BME280;33317;33.356;-117.184;2022-08-26T06:52:10;99222.79;;;29.64;24.59
47592;BME280;33317;33.356;-117.184;2022-08-26T06:54:39;99221.30;;;29.35;24.60
47592;BME280;33317;33.356;-117.184;2022-08-26T06:57:07;99222.33;;;29.61;24.62
47592;BME280;33317;33.356;-117.184;2022-08-26T06:59:36;99225.88;;;29.34;24.72
47592;BME280;33317;33.356;-117.184;2022-08-26T07:02:04;99227.24;;;29.65;24.60
47592;BME280;33317;33.356;-117.184;2022-08-26T07:04:33;99229.13;;;29.62;24.63
47592;BME280;33317;33.356;-117.184;2022-08-26T07:07:02;99228.86;;;29.57;24.73
47592;BME280;33317;33.356;-117.184;2022-08-26T07:09:30;99229.03;;;29.54;24.90
47592;BME280;33317;33.356;-117.184;2022-08-26T07:11:59;99228.07;;;29.51;24.98
47592;BME280;33317;33.356;-117.184;2022-08-26T07:14:28;99228.81;;;29.47;24.92
47592;BME280;33317;33.356;-117.184;2022-08-26T07:16:56;99228.60;;;29.49;24.93
47592;BME280;33317;33.356;-117.184;2022-08-26T07:19:24;99224.99;;;29.48;25.06
47592;BME280;33317;33.356;-117.184;2022-08-26T07:21:53;99222.07;;;29.44;25.04
47592;BME280;33317;33.356;-117.184;2022-08-26T07:24:21;99219.24;;;29.41;24.96
47592;BME280;33317;33.356;-117.184;2022-08-26T07:26:50;99215.05;;;29.41;25.03
47592;BME280;33317;33.356;-117.184;2022-08-26T07:29:18;99214.41;;;29.42;24.92
47592;BME280;33317;33.356;-117.184;2022-08-26T07:31:46;99214.32;;;29.41;25.06
47592;BME280;33317;33.356;-117.184;2022-08-26T07:34:15;99213.98;;;29.41;24.96
47592;BME280;33317;33.356;-117.184;2022-08-26T07:36:45;99214.53;;;29.41;25.00
47592;BME280;33317;33.356;-117.184;2022-08-26T07:39:13;99216.83;;;29.13;25.11
47592;BME280;33317;33.356;-117.184;2022-08-26T07:41:42;99216.87;;;29.38;25.10
47592;BME280;33317;33.356;-117.184;2022-08-26T07:44:10;99219.49;;;29.39;25.10
47592;BME280;33317;33.356;-117.184;2022-08-26T07:46:38;99222.57;;;29.36;25.26
47592;BME280;33317;33.356;-117.184;2022-08-26T07:49:07;99225.50;;;29.09;25.21
47592;BME280;33317;33.356;-117.184;2022-08-26T07:51:35;99225.82;;;29.37;25.28
47592;BME280;33317;33.356;-117.184;2022-08-26T07:54:05;99229.50;;;29.57;25.22
47592;BME280;33317;33.356;-117.184;2022-08-26T07:56:34;99231.67;;;29.34;25.30
47592;BME280;33317;33.356;-117.184;2022-08-26T07:59:03;99229.50;;;29.35;25.28
47592;BME280;33317;33.356;-117.184;2022-08-26T08:01:32;99226.56;;;29.34;25.40
47592;BME280;33317;33.356;-117.184;2022-08-26T08:04:00;99227.09;;;29.31;25.39
47592;BME280;33317;33.356;-117.184;2022-08-26T08:06:29;99224.56;;;29.06;25.39
47592;BME280;33317;33.356;-117.184;2022-08-26T08:08:57;99220.89;;;29.33;25.50
47592;BME280;33317;33.356;-117.184;2022-08-26T08:11:26;99221.33;;;29.34;25.51
47592;BME280;33317;33.356;-117.184;2022-08-26T08:13:55;99218.09;;;29.32;25.41
47592;BME280;33317;33.356;-117.184;2022-08-26T08:16:24;99210.54;;;29.55;25.49
47592;BME280;33317;33.356;-117.184;2022-08-26T08:18:52;99206.68;;;29.34;25.60
47592;BME280;33317;33.356;-117.184;2022-08-26T08:21:21;99209.45;;;29.36;25.52
47592;BME280;33317;33.356;-117.184;2022-08-26T08:23:50;99210.69;;;29.38;25.56
47592;BME280;33317;33.356;-117.184;2022-08-26T08:26:18;99208.96;;;29.40;25.56
47592;BME280;33317;33.356;-117.184;2022-08-26T08:28:46;99208.00;;;29.41;25.53
47592;BME280;33317;33.356;-117.184;2022-08-26T08:31:19;99207.06;;;29.40;25.56
47592;BME280;33317;33.356;-117.184;2022-08-26T08:33:49;99210.24;;;29.43;25.55
47592;BME280;33317;33.356;-117.184;2022-08-26T08:36:17;99211.05;;;29.45;25.57
47592;BME280;33317;33.356;-117.184;2022-08-26T08:38:45;99212.54;;;29.45;25.49
47592;BME280;33317;33.356;-117.184;2022-08-26T08:41:24;99211.61;;;29.47;25.46
47592;BME280;33317;33.356;-117.184;2022-08-26T08:43:55;99210.95;;;29.24;25.46
47592;BME280;33317;33.356;-117.184;2022-08-26T08:46:23;99206.15;;;29.52;25.42
47592;BME280;33317;33.356;-117.184;2022-08-26T08:48:53;99205.57;;;29.53;25.40
47592;BME280;33317;33.356;-117.184;2022-08-26T08:51:31;99202.20;;;29.29;25.35
47592;BME280;33317;33.356;-117.184;2022-08-26T08:54:04;99199.24;;;29.32;25.38
47592;BME280;33317;33.356;-117.184;2022-08-26T08:56:36;99193.39;;;29.34;25.40
47592;BME280;33317;33.356;-117.184;2022-08-26T08:59:12;99186.37;;;29.35;25.40
47592;BME280;33317;33.356;-117.184;2022-08-26T09:01:53;99183.45;;;29.37;25.41
47592;BME280;33317;33.356;-117.184;2022-08-26T09:04:45;99180.49;;;29.66;25.54
47592;BME280;33317;33.356;-117.184;2022-08-26T09:07:18;99180.65;;;29.45;25.37
47592;BME280;33317;33.356;-117.184;2022-08-26T09:09:51;99181.07;;;29.71;25.44
47592;BME280;33317;33.356;-117.184;2022-08-26T09:12:25;99181.71;;;29.43;25.53
47592;BME280;33317;33.356;-117.184;2022-08-26T09:14:55;99182.05;;;29.69;25.48
47592;BME280;33317;33.356;-117.184;2022-08-26T09:17:37;99182.99;;;29.43;25.56
47592;BME280;33317;33.356;-117.184;2022-08-26T09:20:16;99184.57;;;29.71;25.49
47592;BME280;33317;33.356;-117.184;2022-08-26T09:22:46;99186.27;;;29.71;25.56
47592;BME280;33317;33.356;-117.184;2022-08-26T09:25:15;99187.15;;;29.71;25.55
47592;BME280;33317;33.356;-117.184;2022-08-26T09:27:46;99187.54;;;29.70;25.50
47592;BME280;33317;33.356;-117.184;2022-08-26T09:30:20;99188.74;;;29.43;25.60
47592;BME280;33317;33.356;-117.184;2022-08-26T09:32:59;99190.03;;;29.71;25.47
47592;BME280;33317;33.356;-117.184;2022-08-26T09:35:32;99187.48;;;29.30;25.47
47592;BME280;33317;33.356;-117.184;2022-08-26T09:38:02;99181.94;;;29.50;25.50
47592;BME280;33317;33.356;-117.184;2022-08-26T09:40:55;99179.07;;;29.74;25.43
47592;BME280;33317;33.356;-117.184;2022-08-26T09:43:24;99177.39;;;29.46;25.39
47592;BME280;33317;33.356;-117.184;2022-08-26T09:45:54;99172.39;;;29.45;25.48
47592;BME280;33317;33.356;-117.184;2022-08-26T09:48:27;99168.24;;;29.74;25.58
47592;BME280;33317;33.356;-117.184;2022-08-26T09:50:59;99163.79;;;29.74;25.46
47592;BME280;33317;33.356;-117.184;2022-08-26T09:53:29;99163.25;;;29.47;25.53
47592;BME280;33317;33.356;-117.184;2022-08-26T09:56:23;99161.59;;;29.74;25.62
47592;BME280;33317;33.356;-117.184;2022-08-26T09:58:53;99163.33;;;29.50;25.49
47592;BME280;33317;33.356;-117.184;2022-08-26T10:01:32;99161.74;;;29.74;25.54
47592;BME280;33317;33.356;-117.184;2022-08-26T10:04:07;99157.68;;;29.75;25.63
47592;BME280;33317;33.356;-117.184;2022-08-26T10:06:40;99155.70;;;29.75;25.67
47592;BME280;33317;33.356;-117.184;2022-08-26T10:09:12;99158.17;;;29.49;25.77
47592;BME280;33317;33.356;-117.184;2022-08-26T10:11:47;99156.99;;;29.73;25.70
47592;BME280;33317;33.356;-117.184;2022-08-26T10:14:20;99155.22;;;29.44;25.77
47592;BME280;33317;33.356;-117.184;2022-08-26T10:16:55;99154.63;;;29.71;25.77
47592;BME280;33317;33.356;-117.184;2022-08-26T10:19:31;99153.30;;;29.45;25.99
47592;BME280;33317;33.356;-117.184;2022-08-26T10:22:04;99150.93;;;29.72;25.81
47592;BME280;33317;33.356;-117.184;2022-08-26T10:24:42;99147.89;;;29.44;25.80
47592;BME280;33317;33.356;-117.184;2022-08-26T10:27:20;99149.41;;;29.44;25.90
47592;BME280;33317;33.356;-117.184;2022-08-26T10:29:53;99153.38;;;29.69;25.86
47592;BME280;33317;33.356;-117.184;2022-08-26T10:32:26;99151.67;;;29.68;25.86
47592;BME280;33317;33.356;-117.184;2022-08-26T10:34:58;99151.61;;;29.66;25.92
47592;BME280;33317;33.356;-117.184;2022-08-26T10:37:33;99155.38;;;29.40;26.01
47592;BME280;33317;33.356;-117.184;2022-08-26T10:40:10;99157.23;;;29.67;26.06
47592;BME280;33317;33.356;-117.184;2022-08-26T10:42:44;99156.40;;;29.68;25.96
47592;BME280;33317;33.356;-117.184;2022-08-26T10:45:15;99152.90;;;29.67;25.92
47592;BME280;33317;33.356;-117.184;2022-08-26T10:47:49;99149.38;;;29.67;25.85
47592;BME280;33317;33.356;-117.184;2022-08-26T10:50:32;99151.91;;;29.67;26.02
47592;BME280;33317;33.356;-117.184;2022-08-26T10:53:07;99150.17;;;29.66;25.98
47592;BME280;33317;33.356;-117.184;2022-08-26T10:55:46;99145.33;;;29.66;25.89
47592;BME280;33317;33.356;-117.184;2022-08-26T10:58:30;99142.75;;;29.65;26.03
47592;BME280;33317;33.356;-117.184;2022-08-26T11:01:13;99138.56;;;29.65;25.88
47592;BME280;33317;33.356;-117.184;2022-08-26T11:03:52;99134.37;;;29.37;25.95
47592;BME280;33317;33.356;-117.184;2022-08-26T11:06:26;99129.51;;;29.65;26.00
47592;BME280;33317;33.356;-117.184;2022-08-26T11:08:56;99128.30;;;29.66;26.11
47592;BME280;33317;33.356;-117.184;2022-08-26T11:11:59;99127.50;;;29.65;26.09
47592;BME280;33317;33.356;-117.184;2022-08-26T11:14:35;99126.88;;;29.65;26.16
47592;BME280;33317;33.356;-117.184;2022-08-26T11:17:05;99126.23;;;29.40;26.21
47592;BME280;33317;33.356;-117.184;2022-08-26T11:20:08;99124.67;;;29.38;26.20
47592;BME280;33317;33.356;-117.184;2022-08-26T11:22:37;99118.14;;;29.35;26.16
47592;BME280;33317;33.356;-117.184;2022-08-26T11:25:11;99113.65;;;29.60;26.10
47592;BME280;33317;33.356;-117.184;2022-08-26T11:27:55;99112.93;;;29.57;26.30
47592;BME280;33317;33.356;-117.184;2022-08-26T11:30:45;99110.88;;;29.30;26.23
47592;BME280;33317;33.356;-117.184;2022-08-26T11:33:49;99115.31;;;29.29;26.31
47592;BME280;33317;33.356;-117.184;2022-08-26T11:36:57;99117.73;;;29.53;26.26
47592;BME280;33317;33.356;-117.184;2022-08-26T11:39:29;99119.17;;;29.53;26.31
47592;BME280;33317;33.356;-117.184;2022-08-26T11:42:03;99114.84;;;29.52;26.36
47592;BME280;33317;33.356;-117.184;2022-08-26T11:44:43;99110.73;;;29.47;26.29
47592;BME280;33317;33.356;-117.184;2022-08-26T11:47:14;99107.76;;;29.44;26.38
47592;BME280;33317;33.356;-117.184;2022-08-26T11:49:43;99105.96;;;29.44;26.42
47592;BME280;33317;33.356;-117.184;2022-08-26T11:52:16;99099.79;;;29.42;26.33
47592;BME280;33317;33.356;-117.184;2022-08-26T11:55:03;99099.36;;;29.38;26.50
47592;BME280;33317;33.356;-117.184;2022-08-26T11:57:34;99096.61;;;29.11;26.43
47592;BME280;33317;33.356;-117.184;2022-08-26T12:00:08;99100.50;;;29.34;26.41
47592;BME280;33317;33.356;-117.184;2022-08-26T12:02:38;99103.14;;;29.75;26.54
47592;BME280;33317;33.356;-117.184;2022-08-26T12:05:13;99103.10;;;29.26;26.65
47592;BME280;33317;33.356;-117.184;2022-08-26T12:07:48;99102.98;;;29.20;26.61
47592;BME280;33317;33.356;-117.184;2022-08-26T12:10:27;99101.58;;;29.17;26.68
47592;BME280;33317;33.356;-117.184;2022-08-26T12:12:57;99102.83;;;29.12;26.84
47592;BME280;33317;33.356;-117.184;2022-08-26T12:15:28;99103.50;;;29.07;26.83
47592;BME280;33317;33.356;-117.184;2022-08-26T12:17:57;99106.23;;;29.03;27.00
47592;BME280;33317;33.356;-117.184;2022-08-26T12:20:30;99105.19;;;29.00;26.85
47592;BME280;33317;33.356;-117.184;2022-08-26T12:22:59;99105.25;;;28.99;27.07
47592;BME280;33317;33.356;-117.184;2022-08-26T12:25:29;99104.58;;;28.99;26.99
47592;BME280;33317;33.356;-117.184;2022-08-26T12:28:02;99104.69;;;29.38;27.01
47592;BME280;33317;33.356;-117.184;2022-08-26T12:30:32;99101.76;;;28.93;27.00
47592;BME280;33317;33.356;-117.184;2022-08-26T12:33:05;99102.56;;;28.92;27.10
47592;BME280;33317;33.356;-117.184;2022-08-26T12:35:34;99100.31;;;28.95;27.04
47592;BME280;33317;33.356;-117.184;2022-08-26T12:38:07;99102.12;;;28.94;27.11
47592;BME280;33317;33.356;-117.184;2022-08-26T12:40:41;99104.09;;;28.94;27.04
47592;BME280;33317;33.356;-117.184;2022-08-26T12:43:13;99106.34;;;29.17;27.16
47592;BME280;33317;33.356;-117.184;2022-08-26T12:45:43;99104.82;;;28.98;27.17
47592;BME280;33317;33.356;-117.184;2022-08-26T12:48:26;99104.77;;;29.01;27.04
47592;BME280;33317;33.356;-117.184;2022-08-26T12:50:56;99104.74;;;29.21;26.36
47592;BME280;33317;33.356;-117.184;2022-08-26T12:53:26;99108.25;;;29.03;26.07
47592;BME280;33317;33.356;-117.184;2022-08-26T12:55:56;99109.79;;;28.71;26.30